Time;durP1;ratioP1;P1;durP2;ratioP2;P2;SDS_P1;SDS_P2;PMS_P1;PMS_P2;Temp;Humidity;BMP_temperature;BMP_pressure;BME280_temperature;BME280_humidity;BME280_pressure;Samples;Min_cycle;Max_cycle;Signal;HPM_P1;HPM_P2
2022/07/04 00:02:39;;;;;;;3.75;2.40;;;;;;;;;;12632044;28;20036;-78
2022/07/04 00:08:40;;;;;;;2.75;1.85;;;;;;;;;;12631655;28;20047;-78
2022/07/04 00:14:42;;;;;;;2.50;2.30;;;;;;;;;;12648431;28;20036;-82
2022/07/04 00:20:44;;;;;;;2.53;2.33;;;;;;;;;;12649116;28;20402;-78
2022/07/04 00:26:45;;;;;;;2.83;2.58;;;;;;;;;;12648826;28;20036;-82
2022/07/04 00:32:47;;;;;;;3.47;2.97;;;;;;;;;;12629738;28;20036;-79
2022/07/04 00:38:49;;;;;;;3.22;2.92;;;;;;;;;;12647508;28;20059;-78
2022/07/04 00:44:50;;;;;;;2.55;2.35;;;;;;;;;;12646945;28;20032;-82
2022/07/04 00:50:52;;;;;;;2.80;2.60;;;;;;;;;;12629119;28;20510;-82
2022/07/04 00:56:55;;;;;;;2.95;2.63;;;;;;;;;;12628469;28;20055;-82
2022/07/04 01:02:56;;;;;;;2.58;2.38;;;;;;;;;;12646801;28;20111;-81
2022/07/04 01:08:58;;;;;;;5.28;2.50;;;;;;;;;;12628121;28;20047;-78
2022/07/04 01:15:00;;;;;;;2.67;2.40;;;;;;;;;;12645718;28;20040;-82
2022/07/04 01:21:02;;;;;;;3.10;2.53;;;;;;;;;;12645420;28;20395;-82
2022/07/04 01:27:04;;;;;;;2.55;2.35;;;;;;;;;;12645780;28;20024;-78
2022/07/04 01:33:05;;;;;;;3.90;2.28;;;;;;;;;;12645203;28;20058;-79
2022/07/04 01:39:07;;;;;;;2.80;2.53;;;;;;;;;;12627152;28;20047;-78
2022/07/04 01:45:09;;;;;;;2.95;2.53;;;;;;;;;;12628009;28;20043;-81
2022/07/04 01:51:11;;;;;;;2.65;2.22;;;;;;;;;;12610228;28;20035;-78
2022/07/04 01:57:13;;;;;;;2.25;2.00;;;;;;;;;;12625734;28;20051;-79
2022/07/04 02:03:15;;;;;;;2.88;2.15;;;;;;;;;;12610253;28;20043;-79
2022/07/04 02:09:16;;;;;;;4.03;2.50;;;;;;;;;;12645350;28;20036;-82
2022/07/04 02:15:18;;;;;;;2.65;2.45;;;;;;;;;;12626185;28;20040;-82
2022/07/04 02:21:20;;;;;;;2.78;2.50;;;;;;;;;;12643835;28;20395;-79
2022/07/04 02:27:22;;;;;;;2.33;2.13;;;;;;;;;;12644070;28;20032;-82
2022/07/04 02:33:23;;;;;;;3.83;2.20;;;;;;;;;;12643705;28;20036;-79
2022/07/04 02:39:25;;;;;;;2.63;2.30;;;;;;;;;;12626442;28;20052;-79
2022/07/04 02:45:27;;;;;;;3.20;2.25;;;;;;;;;;12643485;28;20494;-79
2022/07/04 02:51:29;;;;;;;2.80;2.45;;;;;;;;;;12643772;28;20039;-82
2022/07/04 02:57:31;;;;;;;2.92;2.63;;;;;;;;;;12643006;28;20048;-81
2022/07/04 03:03:32;;;;;;;2.63;2.10;;;;;;;;;;12643752;28;20032;-79
2022/07/04 03:09:34;;;;;;;2.50;2.30;;;;;;;;;;12630196;28;20036;-79
2022/07/04 03:15:36;;;;;;;3.80;2.50;;;;;;;;;;12616981;28;20055;-79
2022/07/04 03:21:38;;;;;;;3.85;2.58;;;;;;;;;;12633101;28;20040;-82
2022/07/04 03:27:39;;;;;;;3.08;2.60;;;;;;;;;;12632919;28;20024;-79
2022/07/04 03:33:41;;;;;;;2.30;2.10;;;;;;;;;;12651052;28;20024;-79
2022/07/04 03:39:43;;;;;;;2.50;2.30;;;;;;;;;;12651030;28;20059;-79
2022/07/04 03:45:44;;;;;;;2.45;2.25;;;;;;;;;;12632015;28;20039;-79
2022/07/04 03:51:46;;;;;;;2.63;2.42;;;;;;;;;;12631659;28;20032;-82
2022/07/04 03:57:48;;;;;;;2.58;2.40;;;;;;;;;;12614623;28;20051;-82
2022/07/04 04:10:10;;;;;;;2.40;2.20;;;;;;;;;;12630675;28;20036;-82
2022/07/04 04:16:12;;;;;;;3.33;2.83;;;;;;;;;;12648727;28;20032;-79
2022/07/04 04:22:14;;;;;;;2.97;2.78;;;;;;;;;;12630144;28;20454;-82
2022/07/04 04:28:15;;;;;;;3.05;2.75;;;;;;;;;;12629963;28;20039;-82
2022/07/04 04:34:17;;;;;;;2.97;2.50;;;;;;;;;;12629987;28;20036;-82
2022/07/04 04:40:19;;;;;;;2.53;2.38;;;;;;;;;;12647850;28;20075;-78
2022/07/04 04:46:21;;;;;;;3.10;2.80;;;;;;;;;;12646641;28;20036;-78
2022/07/04 04:52:23;;;;;;;3.45;3.10;;;;;;;;;;12646958;28;20039;-78
2022/07/04 04:58:25;;;;;;;2.83;2.55;;;;;;;;;;12646295;28;20055;-82
2022/07/04 05:04:27;;;;;;;3.03;2.67;;;;;;;;;;12628018;28;20103;-82
2022/07/04 05:10:28;;;;;;;2.60;2.40;;;;;;;;;;12628480;28;20040;-78
2022/07/04 05:16:30;;;;;;;4.05;2.92;;;;;;;;;;12645257;28;20043;-82
2022/07/04 05:22:32;;;;;;;7.45;4.72;;;;;;;;;;12626925;28;20040;-78
2022/07/04 05:28:34;;;;;;;3.80;3.50;;;;;;;;;;12611188;28;20043;-78
2022/07/04 05:34:36;;;;;;;4.38;3.63;;;;;;;;;;12644185;28;20412;-81
2022/07/04 05:40:37;;;;;;;3.80;3.25;;;;;;;;;;12577223;28;20051;-78
2022/07/04 05:46:39;;;;;;;3.47;3.10;;;;;;;;;;12594221;28;20032;-81
2022/07/04 05:52:41;;;;;;;3.63;3.08;;;;;;;;;;12575656;28;20047;-81
2022/07/04 05:58:43;;;;;;;3.10;2.80;;;;;;;;;;12575191;28;20036;-83
2022/07/04 06:04:44;;;;;;;2.65;2.42;;;;;;;;;;12592248;28;20033;-81
2022/07/04 06:10:46;;;;;;;3.30;2.65;;;;;;;;;;12593730;28;20468;-83
2022/07/04 06:16:48;;;;;;;2.30;2.03;;;;;;;;;;12591364;28;20391;-82
2022/07/04 06:22:50;;;;;;;4.15;1.88;;;;;;;;;;12574596;28;20040;-81
2022/07/04 06:28:52;;;;;;;2.20;1.98;;;;;;;;;;12573437;28;20033;-81
2022/07/04 06:41:14;;;;;;;2.53;2.00;;;;;;;;;;12631853;28;20055;-83
2022/07/04 06:47:16;;;;;;;2.28;1.80;;;;;;;;;;12633248;28;20040;-82
2022/07/04 06:53:17;;;;;;;3.35;2.17;;;;;;;;;;12632451;28;20039;-76
2022/07/04 06:59:19;;;;;;;2.22;1.85;;;;;;;;;;12631869;28;20051;-79
2022/07/04 07:05:21;;;;;;;2.05;1.92;;;;;;;;;;12650052;28;20028;-80
2022/07/04 07:11:23;;;;;;;2.28;1.50;;;;;;;;;;12650295;28;20051;-81
2022/07/04 07:17:24;;;;;;;1.95;1.77;;;;;;;;;;12631869;28;20048;-84
2022/07/04 07:23:26;;;;;;;2.33;1.70;;;;;;;;;;12632396;28;20032;-82
2022/07/04 07:29:28;;;;;;;1.92;1.40;;;;;;;;;;12649921;28;20036;-85
2022/07/04 07:35:29;;;;;;;2.85;1.80;;;;;;;;;;12649104;28;20036;-76
2022/07/04 07:41:31;;;;;;;1.60;1.50;;;;;;;;;;12630352;28;20055;-79
2022/07/04 07:47:33;;;;;;;1.25;1.17;;;;;;;;;;12648515;28;20036;-79
2022/07/04 07:53:34;;;;;;;2.20;1.50;;;;;;;;;;12647884;28;20031;-82
2022/07/04 07:59:36;;;;;;;2.55;1.38;;;;;;;;;;12648161;28;20047;-82
2022/07/04 08:05:41;;;;;;;2.78;1.38;;;;;;;;;;12629948;28;20032;-80
2022/07/04 08:11:43;;;;;;;2.35;1.13;;;;;;;;;;12612913;28;20043;-79
2022/07/04 08:17:46;;;;;;;1.05;0.95;;;;;;;;;;12648658;28;20514;-80
2022/07/04 08:23:48;;;;;;;1.35;0.90;;;;;;;;;;12629128;28;20032;-80
2022/07/04 08:29:49;;;;;;;0.85;0.80;;;;;;;;;;12646596;28;20400;-80
2022/07/04 08:35:53;;;;;;;1.27;1.10;;;;;;;;;;12628767;28;20036;-79
2022/07/04 08:41:56;;;;;;;3.00;0.80;;;;;;;;;;12628628;28;20056;-77
2022/07/04 08:48:01;;;;;;;0.75;0.75;;;;;;;;;;12627914;28;20039;-78
2022/07/04 08:58:25;;;;;;;0.90;0.80;;;;;;;;;;12645656;28;20024;-79
2022/07/04 09:00:24;;;;;;;1.15;0.80;;;;;;;;;;12644880;28;20040;-78
2022/07/04 09:06:27;;;;;;;0.93;0.85;;;;;;;;;;12627228;28;20376;-80
2022/07/04 09:12:29;;;;;;;1.90;0.90;;;;;;;;;;12644943;28;20048;-82
2022/07/04 09:18:32;;;;;;;2.08;1.02;;;;;;;;;;12625702;28;20529;-84
2022/07/04 09:24:46;;;;;;;2.90;0.70;;;;;;;;;;12644523;28;20030;-83
2022/07/04 09:30:48;;;;;;;0.60;0.60;;;;;;;;;;12625906;28;20475;-82
2022/07/04 09:36:54;;;;;;;0.98;0.52;;;;;;;;;;12626158;28;20043;-83
2022/07/04 09:42:57;;;;;;;0.70;0.60;;;;;;;;;;12625955;28;20129;-81
2022/07/04 09:48:59;;;;;;;0.95;0.50;;;;;;;;;;12625618;28;20035;-83
2022/07/04 09:55:05;;;;;;;0.55;0.40;;;;;;;;;;12643721;28;20020;-83
2022/07/04 10:01:07;;;;;;;2.22;0.65;;;;;;;;;;12608200;28;20040;-80
2022/07/04 10:07:08;;;;;;;1.10;0.57;;;;;;;;;;12642139;28;20036;-82
2022/07/04 10:13:11;;;;;;;1.15;0.70;;;;;;;;;;12642359;28;20036;-83
2022/07/04 10:19:13;;;;;;;0.80;0.68;;;;;;;;;;12647778;28;20590;-85
2022/07/04 10:25:15;;;;;;;0.52;0.50;;;;;;;;;;12620401;28;20032;-77
2022/07/04 10:31:17;;;;;;;0.70;0.50;;;;;;;;;;12653197;28;20038;-78
2022/07/04 10:37:20;;;;;;;0.50;0.50;;;;;;;;;;12655547;28;20059;-83
2022/07/04 10:43:37;;;;;;;1.17;0.57;;;;;;;;;;12652854;28;20040;-82
2022/07/04 10:49:40;;;;;;;0.55;0.50;;;;;;;;;;12634719;28;20047;-82
2022/07/04 10:55:43;;;;;;;0.50;0.50;;;;;;;;;;12651913;28;20051;-82
2022/07/04 11:01:46;;;;;;;0.30;0.30;;;;;;;;;;12634538;28;20071;-79
2022/07/04 11:07:48;;;;;;;1.15;0.50;;;;;;;;;;12652199;28;20039;-79
2022/07/04 11:14:09;;;;;;;2.45;0.90;;;;;;;;;;12633310;28;20044;-82
2022/07/04 11:20:11;;;;;;;1.40;1.10;;;;;;;;;;12651371;28;20051;-81
2022/07/04 11:26:13;;;;;;;1.10;1.00;;;;;;;;;;12650582;28;20479;-79
2022/07/04 11:32:15;;;;;;;1.00;0.90;;;;;;;;;;12649004;28;20388;-79
2022/07/04 11:38:17;;;;;;;0.60;0.60;;;;;;;;;;12650385;28;20052;-78
2022/07/04 11:50:40;;;;;;;0.82;0.70;;;;;;;;;;12649681;28;20403;-82
2022/07/04 11:56:42;;;;;;;0.93;0.70;;;;;;;;;;12649982;28;20032;-79
2022/07/04 12:02:44;;;;;;;0.70;0.70;;;;;;;;;;12648784;28;20028;-82
2022/07/04 12:08:46;;;;;;;2.47;1.00;;;;;;;;;;12630945;28;20051;-83
2022/07/04 12:14:58;;;;;;;1.63;0.77;;;;;;;;;;12630395;28;20039;-79
2022/07/04 12:21:15;;;;;;;2.28;0.70;;;;;;;;;;12613274;28;20052;-83
2022/07/04 12:27:18;;;;;;;1.15;0.75;;;;;;;;;;12629782;28;20039;-79
2022/07/04 12:33:20;;;;;;;1.10;0.90;;;;;;;;;;12647061;28;20028;-79
2022/07/04 12:39:28;;;;;;;1.98;1.60;;;;;;;;;;12630158;28;20051;-80
2022/07/04 12:45:45;;;;;;;2.08;1.55;;;;;;;;;;12628693;28;20502;-78
2022/07/04 12:51:48;;;;;;;3.15;1.58;;;;;;;;;;12646514;28;20047;-83
2022/07/04 12:57:50;;;;;;;1.75;1.65;;;;;;;;;;12646725;28;20040;-80
2022/07/04 13:03:52;;;;;;;4.40;1.50;;;;;;;;;;12646726;28;20046;-80
2022/07/04 13:09:54;;;;;;;4.78;1.70;;;;;;;;;;12647009;28;20039;-79
2022/07/04 13:15:58;;;;;;;3.80;1.45;;;;;;;;;;12645843;28;20040;-79
2022/07/04 13:22:00;;;;;;;3.75;1.45;;;;;;;;;;12645032;28;20044;-82
2022/07/04 13:28:02;;;;;;;3.90;1.40;;;;;;;;;;12626539;28;20028;-79
2022/07/04 13:34:04;;;;;;;1.48;1.10;;;;;;;;;;12628041;28;20036;-82
2022/07/04 13:40:06;;;;;;;2.78;1.50;;;;;;;;;;12644852;28;20059;-78
2022/07/04 13:46:08;;;;;;;2.72;1.10;;;;;;;;;;12644436;28;20025;-79
2022/07/04 13:52:10;;;;;;;1.60;1.02;;;;;;;;;;12625532;28;20040;-78
2022/07/04 13:58:12;;;;;;;0.93;0.77;;;;;;;;;;12643766;28;20618;-79
2022/07/04 14:04:14;;;;;;;1.08;0.80;;;;;;;;;;12643686;28;20028;-79
2022/07/04 14:10:16;;;;;;;1.50;0.82;;;;;;;;;;12645495;28;20375;-83
2022/07/04 14:16:18;;;;;;;2.60;1.17;;;;;;;;;;12608889;28;20396;-83
2022/07/04 14:22:20;;;;;;;1.10;0.80;;;;;;;;;;12643208;28;20395;-82
2022/07/04 14:28:22;;;;;;;1.27;0.60;;;;;;;;;;12624896;28;20032;-82
2022/07/04 14:34:24;;;;;;;0.70;0.70;;;;;;;;;;12642855;28;20029;-79
2022/07/04 14:40:26;;;;;;;1.75;0.50;;;;;;;;;;12607846;28;20048;-79
2022/07/04 14:46:28;;;;;;;1.05;0.70;;;;;;;;;;12642710;28;20365;-80
2022/07/04 14:52:30;;;;;;;0.75;0.70;;;;;;;;;;12624673;28;20028;-80
2022/07/04 14:58:32;;;;;;;0.47;0.45;;;;;;;;;;12624709;28;20047;-79
2022/07/04 15:04:34;;;;;;;1.33;0.52;;;;;;;;;;12629129;28;20032;-80
2022/07/04 15:10:36;;;;;;;0.65;0.45;;;;;;;;;;12652319;28;20032;-78
2022/07/04 15:16:37;;;;;;;0.50;0.47;;;;;;;;;;12633298;28;20385;-79
2022/07/04 15:29:03;;;;;;;1.17;0.57;;;;;;;;;;12633269;28;20158;-82
2022/07/04 15:35:04;;;;;;;1.13;0.50;;;;;;;;;;12632897;28;20028;-80
2022/07/04 15:41:08;;;;;;;0.55;0.40;;;;;;;;;;12632166;28;20496;-80
2022/07/04 15:47:10;;;;;;;1.60;0.50;;;;;;;;;;12631822;28;20070;-79
2022/07/04 15:53:12;;;;;;;0.60;0.60;;;;;;;;;;12649898;28;20028;-79
2022/07/04 15:59:14;;;;;;;1.02;0.40;;;;;;;;;;12631134;28;20412;-79
2022/07/04 16:05:15;;;;;;;0.98;0.45;;;;;;;;;;12648829;28;20506;-80
2022/07/04 16:11:17;;;;;;;1.05;0.50;;;;;;;;;;12649631;28;20047;-79
2022/07/04 16:17:19;;;;;;;1.02;0.57;;;;;;;;;;12647465;28;20055;-80
2022/07/04 16:23:21;;;;;;;2.17;0.43;;;;;;;;;;12635321;28;20047;-82
2022/07/04 16:29:23;;;;;;;2.13;0.70;;;;;;;;;;12647962;28;20047;-82
2022/07/04 16:35:25;;;;;;;1.13;0.60;;;;;;;;;;12648137;28;20054;-83
2022/07/04 16:41:26;;;;;;;2.13;0.60;;;;;;;;;;12647084;28;20050;-83
2022/07/04 16:47:28;;;;;;;0.38;0.35;;;;;;;;;;12612007;28;20036;-78
2022/07/04 16:53:30;;;;;;;0.88;0.38;;;;;;;;;;12646448;28;20032;-79
2022/07/04 16:59:32;;;;;;;0.68;0.30;;;;;;;;;;12645694;28;20047;-83
2022/07/04 17:05:34;;;;;;;0.70;0.30;;;;;;;;;;12611225;28;20032;-82
2022/07/04 17:11:36;;;;;;;0.32;0.32;;;;;;;;;;12645780;28;20055;-82
2022/07/04 17:17:38;;;;;;;0.90;0.40;;;;;;;;;;12627162;28;20036;-83
2022/07/04 17:23:39;;;;;;;0.30;0.30;;;;;;;;;;12644780;28;20036;-79
2022/07/04 17:29:41;;;;;;;1.25;0.30;;;;;;;;;;12626113;28;20039;-80
2022/07/04 17:35:43;;;;;;;1.15;0.40;;;;;;;;;;12627628;28;20032;-80
2022/07/04 17:41:46;;;;;;;0.55;0.38;;;;;;;;;;12627180;28;20507;-80
2022/07/04 17:47:47;;;;;;;1.52;0.50;;;;;;;;;;12625693;28;20062;-80
2022/07/04 17:53:49;;;;;;;2.72;0.40;;;;;;;;;;12643303;28;20032;-80
2022/07/04 17:59:51;;;;;;;2.90;0.50;;;;;;;;;;12625229;28;20054;-81
2022/07/04 18:05:53;;;;;;;1.30;0.32;;;;;;;;;;12643183;28;20048;-80
2022/07/04 18:11:54;;;;;;;0.82;0.40;;;;;;;;;;12625228;28;20024;-80
2022/07/04 18:17:56;;;;;;;1.30;0.30;;;;;;;;;;12642698;28;20377;-80
2022/07/04 18:23:58;;;;;;;1.40;0.40;;;;;;;;;;12625066;28;20484;-80
2022/07/04 18:30:00;;;;;;;1.55;0.70;;;;;;;;;;12608834;28;20043;-80
2022/07/04 18:36:02;;;;;;;0.55;0.43;;;;;;;;;;12608314;28;20408;-80
2022/07/04 18:48:25;;;;;;;40.60;4.55;;;;;;;;;;12651747;28;20039;-80
2022/07/04 18:54:26;;;;;;;44.78;4.55;;;;;;;;;;12617755;28;20118;-80
2022/07/04 19:00:28;;;;;;;21.50;3.67;;;;;;;;;;12651381;28;20492;-80
2022/07/04 19:06:30;;;;;;;14.95;3.00;;;;;;;;;;12651335;28;20043;-80
2022/07/04 19:12:32;;;;;;;10.18;1.77;;;;;;;;;;12651789;28;20496;-80
2022/07/04 19:18:34;;;;;;;6.72;1.50;;;;;;;;;;12615939;28;20416;-81
2022/07/04 19:24:35;;;;;;;4.50;1.08;;;;;;;;;;12650380;28;20106;-79
2022/07/04 19:30:37;;;;;;;5.88;1.10;;;;;;;;;;12632074;28;20024;-79
2022/07/04 19:36:39;;;;;;;3.60;0.70;;;;;;;;;;12649825;28;20039;-80
2022/07/04 19:42:41;;;;;;;1.17;0.47;;;;;;;;;;12650051;28;20044;-79
2022/07/04 19:48:43;;;;;;;3.15;0.70;;;;;;;;;;12630141;28;20028;-79
2022/07/04 19:54:44;;;;;;;3.25;0.70;;;;;;;;;;12631266;28;20043;-79
2022/07/04 20:00:46;;;;;;;3.22;0.60;;;;;;;;;;12615163;28;20043;-79
2022/07/04 20:06:48;;;;;;;2.10;0.47;;;;;;;;;;12614427;28;20380;-80
2022/07/04 20:12:50;;;;;;;1.00;0.40;;;;;;;;;;12648606;28;20281;-83
2022/07/04 20:18:52;;;;;;;2.70;0.65;;;;;;;;;;12614099;28;20044;-83
2022/07/04 20:24:55;;;;;;;2.05;0.40;;;;;;;;;;12647649;28;20036;-83
2022/07/04 20:30:57;;;;;;;1.85;0.40;;;;;;;;;;12612727;28;20036;-83
2022/07/04 20:36:59;;;;;;;1.55;0.40;;;;;;;;;;12612323;28;20063;-83
2022/07/04 20:43:01;;;;;;;1.80;0.30;;;;;;;;;;12628302;28;20044;-83
2022/07/04 20:49:05;;;;;;;0.68;0.20;;;;;;;;;;12646773;28;20472;-83
2022/07/04 20:55:07;;;;;;;1.50;0.60;;;;;;;;;;12611632;28;20036;-83
2022/07/04 21:01:09;;;;;;;1.80;0.47;;;;;;;;;;12628013;28;20496;-83
2022/07/04 21:07:11;;;;;;;0.40;0.40;;;;;;;;;;12611890;28;20040;-82
2022/07/04 21:13:13;;;;;;;3.75;0.60;;;;;;;;;;12646255;28;20037;-82
2022/07/04 21:19:15;;;;;;;0.70;0.50;;;;;;;;;;12610532;28;20040;-83
2022/07/04 21:25:20;;;;;;;1.65;0.50;;;;;;;;;;12644984;28;20036;-79
2022/07/04 21:31:25;;;;;;;2.03;0.60;;;;;;;;;;12626730;28;20035;-79
2022/07/04 21:37:29;;;;;;;1.30;0.80;;;;;;;;;;12609499;28;20403;-79
2022/07/04 21:43:31;;;;;;;1.63;0.73;;;;;;;;;;12626257;28;20037;-79
2022/07/04 21:49:33;;;;;;;1.63;0.45;;;;;;;;;;12643985;28;20024;-79
2022/07/04 21:55:35;;;;;;;1.50;0.50;;;;;;;;;;12609537;28;20396;-79
2022/07/04 22:01:36;;;;;;;1.63;0.57;;;;;;;;;;12625779;28;20044;-78
2022/07/04 22:07:38;;;;;;;1.80;0.90;;;;;;;;;;12626243;28;20032;-79
2022/07/04 22:13:40;;;;;;;3.72;1.02;;;;;;;;;;12647224;28;20039;-83
2022/07/04 22:19:42;;;;;;;1.17;0.95;;;;;;;;;;12618795;28;20040;-83
2022/07/04 22:25:44;;;;;;;2.58;1.10;;;;;;;;;;12653565;28;20032;-82
2022/07/04 22:31:45;;;;;;;1.02;0.70;;;;;;;;;;12653298;28;20040;-79
2022/07/04 22:37:47;;;;;;;1.15;0.80;;;;;;;;;;12652614;28;20078;-79
2022/07/04 22:43:49;;;;;;;0.85;0.40;;;;;;;;;;12652760;28;20024;-82
2022/07/04 22:49:51;;;;;;;1.83;0.60;;;;;;;;;;12634599;28;20043;-82
2022/07/04 22:55:52;;;;;;;1.73;0.70;;;;;;;;;;12634361;28;20032;-79
2022/07/04 23:01:54;;;;;;;1.50;0.80;;;;;;;;;;12651812;28;20043;-79
2022/07/04 23:07:56;;;;;;;3.33;1.10;;;;;;;;;;12633858;28;20380;-79
2022/07/04 23:13:58;;;;;;;2.70;0.90;;;;;;;;;;12651563;28;20028;-80
2022/07/04 23:20:00;;;;;;;2.17;0.80;;;;;;;;;;12651369;28;20051;-79
2022/07/04 23:26:01;;;;;;;2.38;0.68;;;;;;;;;;12632544;28;20024;-79
2022/07/04 23:32:03;;;;;;;2.13;1.08;;;;;;;;;;12632364;28;20020;-79
2022/07/04 23:38:05;;;;;;;0.70;0.70;;;;;;;;;;12650263;28;20040;-79
2022/07/04 23:44:07;;;;;;;1.23;0.60;;;;;;;;;;12632678;28;20036;-79
2022/07/04 23:50:09;;;;;;;0.93;0.65;;;;;;;;;;12631387;28;20035;-79
2022/07/04 23:56:12;;;;;;;0.60;0.60;;;;;;;;;;12614696;28;20048;-79
